sensor_id;sensor_type;location;lat;lon;timestamp;P1;durP1;ratioP1;P2;durP2;ratioP2
37297;SDS011;30517;51.932;4.278;2022-12-29T00:02:10;5.00;;;2.35;;
37297;SDS011;30517;51.932;4.278;2022-12-29T00:04:53;4.70;;;2.20;;
37297;SDS011;30517;51.932;4.278;2022-12-29T00:07:34;3.90;;;1.90;;
37297;SDS011;30517;51.932;4.278;2022-12-29T00:10:18;4.38;;;2.03;;
37297;SDS011;30517;51.932;4.278;2022-12-29T00:15:58;5.18;;;1.98;;
37297;SDS011;30517;51.932;4.278;2022-12-29T00:18:38;2.90;;;1.40;;
37297;SDS011;30517;51.932;4.278;2022-12-29T00:21:20;4.43;;;2.05;;
37297;SDS011;30517;51.932;4.278;2022-12-29T00:24:21;3.75;;;1.80;;
37297;SDS011;30517;51.932;4.278;2022-12-29T00:30:08;4.53;;;2.10;;
37297;SDS011;30517;51.932;4.278;2022-12-29T00:33:10;3.92;;;1.70;;
37297;SDS011;30517;51.932;4.278;2022-12-29T00:39:27;2.88;;;1.65;;
37297;SDS011;30517;51.932;4.278;2022-12-29T00:42:26;4.47;;;1.83;;
37297;SDS011;30517;51.932;4.278;2022-12-29T00:45:26;3.35;;;1.85;;
37297;SDS011;30517;51.932;4.278;2022-12-29T00:48:07;3.75;;;1.48;;
37297;SDS011;30517;51.932;4.278;2022-12-29T00:50:48;5.30;;;1.77;;
37297;SDS011;30517;51.932;4.278;2022-12-29T00:53:28;3.10;;;1.65;;
37297;SDS011;30517;51.932;4.278;2022-12-29T00:56:09;3.92;;;1.77;;
37297;SDS011;30517;51.932;4.278;2022-12-29T00:58:50;3.53;;;1.55;;
37297;SDS011;30517;51.932;4.278;2022-12-29T01:01:31;3.47;;;1.58;;
37297;SDS011;30517;51.932;4.278;2022-12-29T01:04:12;3.13;;;1.30;;
37297;SDS011;30517;51.932;4.278;2022-12-29T01:06:53;2.50;;;1.23;;
37297;SDS011;30517;51.932;4.278;2022-12-29T01:09:33;2.28;;;1.38;;
37297;SDS011;30517;51.932;4.278;2022-12-29T01:12:33;4.72;;;1.48;;
37297;SDS011;30517;51.932;4.278;2022-12-29T01:15:20;3.00;;;1.75;;
37297;SDS011;30517;51.932;4.278;2022-12-29T01:18:01;2.50;;;1.40;;
37297;SDS011;30517;51.932;4.278;2022-12-29T01:20:42;5.15;;;1.58;;
37297;SDS011;30517;51.932;4.278;2022-12-29T01:23:23;3.38;;;1.48;;
37297;SDS011;30517;51.932;4.278;2022-12-29T01:26:10;3.00;;;1.40;;
37297;SDS011;30517;51.932;4.278;2022-12-29T01:28:52;3.85;;;1.67;;
37297;SDS011;30517;51.932;4.278;2022-12-29T01:31:33;4.57;;;1.70;;
37297;SDS011;30517;51.932;4.278;2022-12-29T01:34:14;2.20;;;1.17;;
37297;SDS011;30517;51.932;4.278;2022-12-29T01:36:54;2.50;;;1.35;;
37297;SDS011;30517;51.932;4.278;2022-12-29T01:39:35;2.63;;;1.30;;
37297;SDS011;30517;51.932;4.278;2022-12-29T01:42:17;2.60;;;1.15;;
37297;SDS011;30517;51.932;4.278;2022-12-29T01:45:08;3.60;;;1.50;;
37297;SDS011;30517;51.932;4.278;2022-12-29T01:47:52;2.60;;;1.45;;
37297;SDS011;30517;51.932;4.278;2022-12-29T01:50:39;3.67;;;1.40;;
37297;SDS011;30517;51.932;4.278;2022-12-29T01:53:25;2.75;;;1.10;;
37297;SDS011;30517;51.932;4.278;2022-12-29T01:56:13;2.75;;;1.30;;
37297;SDS011;30517;51.932;4.278;2022-12-29T01:59:01;2.85;;;1.17;;
37297;SDS011;30517;51.932;4.278;2022-12-29T02:01:49;4.35;;;1.30;;
37297;SDS011;30517;51.932;4.278;2022-12-29T02:04:31;4.15;;;1.35;;
37297;SDS011;30517;51.932;4.278;2022-12-29T02:07:14;1.52;;;0.90;;
37297;SDS011;30517;51.932;4.278;2022-12-29T02:09:58;3.03;;;1.42;;
37297;SDS011;30517;51.932;4.278;2022-12-29T02:12:42;5.65;;;1.30;;
37297;SDS011;30517;51.932;4.278;2022-12-29T02:15:26;5.28;;;1.10;;
37297;SDS011;30517;51.932;4.278;2022-12-29T02:24:36;4.03;;;1.40;;
37297;SDS011;30517;51.932;4.278;2022-12-29T02:33:46;3.42;;;1.10;;
37297;SDS011;30517;51.932;4.278;2022-12-29T02:36:38;2.60;;;1.17;;
37297;SDS011;30517;51.932;4.278;2022-12-29T02:45:09;3.53;;;1.17;;
37297;SDS011;30517;51.932;4.278;2022-12-29T02:48:13;4.70;;;1.30;;
37297;SDS011;30517;51.932;4.278;2022-12-29T02:51:00;3.28;;;1.08;;
37297;SDS011;30517;51.932;4.278;2022-12-29T02:53:43;3.83;;;1.17;;
37297;SDS011;30517;51.932;4.278;2022-12-29T02:56:43;5.47;;;1.27;;
37297;SDS011;30517;51.932;4.278;2022-12-29T02:59:24;5.00;;;1.27;;
37297;SDS011;30517;51.932;4.278;2022-12-29T03:02:27;4.80;;;1.40;;
37297;SDS011;30517;51.932;4.278;2022-12-29T03:08:05;2.13;;;1.10;;
37297;SDS011;30517;51.932;4.278;2022-12-29T03:11:03;4.13;;;1.15;;
37297;SDS011;30517;51.932;4.278;2022-12-29T03:14:18;2.33;;;0.93;;
37297;SDS011;30517;51.932;4.278;2022-12-29T03:17:57;7.97;;;1.38;;
37297;SDS011;30517;51.932;4.278;2022-12-29T03:24:27;3.75;;;1.00;;
37297;SDS011;30517;51.932;4.278;2022-12-29T03:27:12;6.95;;;1.15;;
37297;SDS011;30517;51.932;4.278;2022-12-29T03:29:58;3.03;;;0.98;;
37297;SDS011;30517;51.932;4.278;2022-12-29T03:32:47;5.50;;;1.30;;
37297;SDS011;30517;51.932;4.278;2022-12-29T03:35:31;5.88;;;1.02;;
37297;SDS011;30517;51.932;4.278;2022-12-29T03:38:19;2.85;;;0.95;;
37297;SDS011;30517;51.932;4.278;2022-12-29T03:41:07;2.58;;;1.23;;
37297;SDS011;30517;51.932;4.278;2022-12-29T03:43:51;4.10;;;1.15;;
37297;SDS011;30517;51.932;4.278;2022-12-29T03:46:32;5.65;;;0.98;;
37297;SDS011;30517;51.932;4.278;2022-12-29T03:49:12;3.55;;;1.20;;
37297;SDS011;30517;51.932;4.278;2022-12-29T03:51:53;4.35;;;1.15;;
37297;SDS011;30517;51.932;4.278;2022-12-29T03:54:34;1.48;;;0.75;;
37297;SDS011;30517;51.932;4.278;2022-12-29T03:57:15;1.60;;;0.75;;
37297;SDS011;30517;51.932;4.278;2022-12-29T03:59:56;6.93;;;1.25;;
37297;SDS011;30517;51.932;4.278;2022-12-29T04:02:36;7.10;;;1.20;;
37297;SDS011;30517;51.932;4.278;2022-12-29T04:05:17;4.00;;;1.00;;
37297;SDS011;30517;51.932;4.278;2022-12-29T04:07:58;2.10;;;0.57;;
37297;SDS011;30517;51.932;4.278;2022-12-29T04:10:39;3.15;;;1.05;;
37297;SDS011;30517;51.932;4.278;2022-12-29T04:13:20;2.33;;;1.00;;
37297;SDS011;30517;51.932;4.278;2022-12-29T04:16:01;4.88;;;1.20;;
37297;SDS011;30517;51.932;4.278;2022-12-29T04:18:42;3.15;;;1.10;;
37297;SDS011;30517;51.932;4.278;2022-12-29T04:21:23;3.33;;;1.00;;
37297;SDS011;30517;51.932;4.278;2022-12-29T04:24:03;7.22;;;1.45;;
37297;SDS011;30517;51.932;4.278;2022-12-29T04:26:46;3.57;;;1.40;;
37297;SDS011;30517;51.932;4.278;2022-12-29T04:29:27;4.15;;;0.80;;
37297;SDS011;30517;51.932;4.278;2022-12-29T04:32:08;3.63;;;1.25;;
37297;SDS011;30517;51.932;4.278;2022-12-29T04:34:48;3.42;;;1.25;;
37297;SDS011;30517;51.932;4.278;2022-12-29T04:37:29;2.83;;;0.90;;
37297;SDS011;30517;51.932;4.278;2022-12-29T04:40:10;3.35;;;0.80;;
37297;SDS011;30517;51.932;4.278;2022-12-29T04:42:51;3.53;;;0.82;;
37297;SDS011;30517;51.932;4.278;2022-12-29T04:45:32;3.63;;;1.17;;
37297;SDS011;30517;51.932;4.278;2022-12-29T04:48:13;3.38;;;1.33;;
37297;SDS011;30517;51.932;4.278;2022-12-29T04:50:54;2.90;;;0.98;;
37297;SDS011;30517;51.932;4.278;2022-12-29T04:53:35;3.80;;;1.05;;
37297;SDS011;30517;51.932;4.278;2022-12-29T04:56:16;2.08;;;0.60;;
37297;SDS011;30517;51.932;4.278;2022-12-29T04:58:57;4.97;;;1.17;;
37297;SDS011;30517;51.932;4.278;2022-12-29T05:01:37;3.80;;;0.90;;
37297;SDS011;30517;51.932;4.278;2022-12-29T05:04:18;4.93;;;1.17;;
37297;SDS011;30517;51.932;4.278;2022-12-29T05:06:59;2.38;;;1.00;;
37297;SDS011;30517;51.932;4.278;2022-12-29T05:09:40;2.13;;;0.80;;
37297;SDS011;30517;51.932;4.278;2022-12-29T05:12:20;10.63;;;2.17;;
37297;SDS011;30517;51.932;4.278;2022-12-29T05:15:01;5.25;;;1.20;;
37297;SDS011;30517;51.932;4.278;2022-12-29T05:17:43;5.20;;;1.23;;
37297;SDS011;30517;51.932;4.278;2022-12-29T05:20:24;2.03;;;0.82;;
37297;SDS011;30517;51.932;4.278;2022-12-29T05:23:05;3.08;;;1.15;;
37297;SDS011;30517;51.932;4.278;2022-12-29T05:25:45;3.75;;;1.10;;
37297;SDS011;30517;51.932;4.278;2022-12-29T05:28:26;3.97;;;1.20;;
37297;SDS011;30517;51.932;4.278;2022-12-29T05:31:07;4.50;;;1.20;;
37297;SDS011;30517;51.932;4.278;2022-12-29T05:33:48;4.15;;;1.10;;
37297;SDS011;30517;51.932;4.278;2022-12-29T05:36:29;6.65;;;1.50;;
37297;SDS011;30517;51.932;4.278;2022-12-29T05:39:10;3.78;;;0.90;;
37297;SDS011;30517;51.932;4.278;2022-12-29T05:41:50;1.67;;;0.68;;
37297;SDS011;30517;51.932;4.278;2022-12-29T05:44:31;3.90;;;1.02;;
37297;SDS011;30517;51.932;4.278;2022-12-29T05:47:12;0.95;;;0.68;;
37297;SDS011;30517;51.932;4.278;2022-12-29T05:49:53;4.72;;;0.88;;
37297;SDS011;30517;51.932;4.278;2022-12-29T05:52:34;2.97;;;0.85;;
37297;SDS011;30517;51.932;4.278;2022-12-29T05:55:14;6.30;;;1.25;;
37297;SDS011;30517;51.932;4.278;2022-12-29T05:57:55;4.03;;;1.23;;
37297;SDS011;30517;51.932;4.278;2022-12-29T06:00:36;4.00;;;0.98;;
37297;SDS011;30517;51.932;4.278;2022-12-29T06:03:17;4.20;;;0.95;;
37297;SDS011;30517;51.932;4.278;2022-12-29T06:05:58;3.03;;;1.08;;
37297;SDS011;30517;51.932;4.278;2022-12-29T06:08:39;1.45;;;0.80;;
37297;SDS011;30517;51.932;4.278;2022-12-29T06:11:20;2.63;;;0.80;;
37297;SDS011;30517;51.932;4.278;2022-12-29T06:14:00;4.25;;;1.15;;
37297;SDS011;30517;51.932;4.278;2022-12-29T06:16:41;3.47;;;0.88;;
37297;SDS011;30517;51.932;4.278;2022-12-29T06:19:22;6.50;;;1.77;;
37297;SDS011;30517;51.932;4.278;2022-12-29T06:22:03;2.33;;;0.98;;
37297;SDS011;30517;51.932;4.278;2022-12-29T06:24:44;5.40;;;1.35;;
37297;SDS011;30517;51.932;4.278;2022-12-29T06:27:25;2.10;;;0.93;;
37297;SDS011;30517;51.932;4.278;2022-12-29T06:30:06;3.75;;;0.85;;
37297;SDS011;30517;51.932;4.278;2022-12-29T06:32:48;4.40;;;1.35;;
37297;SDS011;30517;51.932;4.278;2022-12-29T06:35:29;4.88;;;1.10;;
37297;SDS011;30517;51.932;4.278;2022-12-29T06:38:10;6.47;;;1.42;;
37297;SDS011;30517;51.932;4.278;2022-12-29T06:40:51;3.63;;;0.82;;
37297;SDS011;30517;51.932;4.278;2022-12-29T06:43:32;4.75;;;1.15;;
37297;SDS011;30517;51.932;4.278;2022-12-29T06:46:13;5.18;;;1.08;;
37297;SDS011;30517;51.932;4.278;2022-12-29T06:48:54;2.45;;;0.93;;
37297;SDS011;30517;51.932;4.278;2022-12-29T06:51:35;6.03;;;1.42;;
37297;SDS011;30517;51.932;4.278;2022-12-29T06:54:15;3.55;;;1.30;;
37297;SDS011;30517;51.932;4.278;2022-12-29T06:56:56;4.93;;;1.42;;
37297;SDS011;30517;51.932;4.278;2022-12-29T06:59:38;5.00;;;1.40;;
37297;SDS011;30517;51.932;4.278;2022-12-29T07:02:18;4.55;;;1.20;;
37297;SDS011;30517;51.932;4.278;2022-12-29T07:04:59;6.78;;;1.58;;
37297;SDS011;30517;51.932;4.278;2022-12-29T07:07:40;8.90;;;1.50;;
37297;SDS011;30517;51.932;4.278;2022-12-29T07:10:21;7.10;;;1.92;;
37297;SDS011;30517;51.932;4.278;2022-12-29T07:13:03;7.70;;;1.40;;
37297;SDS011;30517;51.932;4.278;2022-12-29T07:15:43;5.03;;;1.17;;
37297;SDS011;30517;51.932;4.278;2022-12-29T07:18:24;6.35;;;1.55;;
37297;SDS011;30517;51.932;4.278;2022-12-29T07:21:05;4.43;;;1.10;;
37297;SDS011;30517;51.932;4.278;2022-12-29T07:23:46;4.22;;;1.38;;
37297;SDS011;30517;51.932;4.278;2022-12-29T07:26:27;5.72;;;1.60;;
37297;SDS011;30517;51.932;4.278;2022-12-29T07:29:08;6.15;;;1.60;;
37297;SDS011;30517;51.932;4.278;2022-12-29T07:31:48;8.60;;;1.92;;
37297;SDS011;30517;51.932;4.278;2022-12-29T07:34:29;6.93;;;1.48;;
37297;SDS011;30517;51.932;4.278;2022-12-29T07:37:10;6.80;;;1.60;;
37297;SDS011;30517;51.932;4.278;2022-12-29T07:39:51;5.53;;;1.45;;
37297;SDS011;30517;51.932;4.278;2022-12-29T07:42:32;5.32;;;1.30;;
37297;SDS011;30517;51.932;4.278;2022-12-29T07:45:12;8.20;;;1.70;;
37297;SDS011;30517;51.932;4.278;2022-12-29T07:47:53;8.93;;;1.65;;
37297;SDS011;30517;51.932;4.278;2022-12-29T07:50:34;5.95;;;1.23;;
37297;SDS011;30517;51.932;4.278;2022-12-29T07:53:16;7.63;;;1.50;;
37297;SDS011;30517;51.932;4.278;2022-12-29T07:55:56;5.32;;;1.25;;
37297;SDS011;30517;51.932;4.278;2022-12-29T07:58:37;8.55;;;1.70;;
37297;SDS011;30517;51.932;4.278;2022-12-29T08:01:18;5.60;;;2.22;;
37297;SDS011;30517;51.932;4.278;2022-12-29T08:03:59;6.68;;;1.73;;
37297;SDS011;30517;51.932;4.278;2022-12-29T08:06:39;8.30;;;1.92;;
37297;SDS011;30517;51.932;4.278;2022-12-29T08:09:20;6.40;;;1.90;;
37297;SDS011;30517;51.932;4.278;2022-12-29T08:12:01;6.32;;;1.48;;
37297;SDS011;30517;51.932;4.278;2022-12-29T08:14:42;7.55;;;2.10;;
37297;SDS011;30517;51.932;4.278;2022-12-29T08:17:22;5.53;;;1.55;;
37297;SDS011;30517;51.932;4.278;2022-12-29T08:20:04;8.73;;;1.95;;
37297;SDS011;30517;51.932;4.278;2022-12-29T08:22:45;7.38;;;1.58;;
37297;SDS011;30517;51.932;4.278;2022-12-29T08:25:26;6.93;;;1.98;;
37297;SDS011;30517;51.932;4.278;2022-12-29T08:28:07;6.57;;;1.63;;
37297;SDS011;30517;51.932;4.278;2022-12-29T08:30:48;10.35;;;1.55;;
37297;SDS011;30517;51.932;4.278;2022-12-29T08:33:29;11.55;;;2.03;;
37297;SDS011;30517;51.932;4.278;2022-12-29T08:36:10;8.63;;;1.70;;
37297;SDS011;30517;51.932;4.278;2022-12-29T08:38:50;7.75;;;2.22;;
37297;SDS011;30517;51.932;4.278;2022-12-29T08:41:31;6.22;;;1.42;;
37297;SDS011;30517;51.932;4.278;2022-12-29T08:44:12;4.53;;;1.30;;
37297;SDS011;30517;51.932;4.278;2022-12-29T08:46:53;8.68;;;2.20;;
37297;SDS011;30517;51.932;4.278;2022-12-29T08:49:33;7.25;;;1.35;;
37297;SDS011;30517;51.932;4.278;2022-12-29T08:52:14;9.95;;;1.90;;
37297;SDS011;30517;51.932;4.278;2022-12-29T08:54:55;7.10;;;1.95;;
37297;SDS011;30517;51.932;4.278;2022-12-29T08:57:36;12.13;;;1.70;;
37297;SDS011;30517;51.932;4.278;2022-12-29T09:00:17;9.07;;;2.60;;
37297;SDS011;30517;51.932;4.278;2022-12-29T09:02:58;5.88;;;1.40;;
37297;SDS011;30517;51.932;4.278;2022-12-29T09:05:39;7.13;;;1.70;;
37297;SDS011;30517;51.932;4.278;2022-12-29T09:08:20;5.13;;;1.60;;
37297;SDS011;30517;51.932;4.278;2022-12-29T09:11:12;9.40;;;1.88;;
37297;SDS011;30517;51.932;4.278;2022-12-29T09:13:58;6.63;;;1.65;;
37297;SDS011;30517;51.932;4.278;2022-12-29T09:16:40;6.85;;;1.95;;
37297;SDS011;30517;51.932;4.278;2022-12-29T09:19:40;10.60;;;1.65;;
37297;SDS011;30517;51.932;4.278;2022-12-29T09:22:20;5.63;;;1.33;;
37297;SDS011;30517;51.932;4.278;2022-12-29T09:25:01;7.40;;;1.85;;
37297;SDS011;30517;51.932;4.278;2022-12-29T09:27:42;10.43;;;1.58;;
37297;SDS011;30517;51.932;4.278;2022-12-29T09:30:23;7.05;;;1.42;;
37297;SDS011;30517;51.932;4.278;2022-12-29T09:33:04;5.25;;;1.27;;
37297;SDS011;30517;51.932;4.278;2022-12-29T09:35:50;5.55;;;1.83;;
37297;SDS011;30517;51.932;4.278;2022-12-29T09:38:32;11.55;;;2.00;;
37297;SDS011;30517;51.932;4.278;2022-12-29T09:44:31;4.70;;;1.52;;
37297;SDS011;30517;51.932;4.278;2022-12-29T09:47:23;3.78;;;1.38;;
37297;SDS011;30517;51.932;4.278;2022-12-29T09:50:09;5.05;;;1.30;;
37297;SDS011;30517;51.932;4.278;2022-12-29T09:56:00;10.45;;;2.33;;
37297;SDS011;30517;51.932;4.278;2022-12-29T09:58:45;9.30;;;1.73;;
37297;SDS011;30517;51.932;4.278;2022-12-29T10:01:41;7.80;;;1.60;;
37297;SDS011;30517;51.932;4.278;2022-12-29T10:04:27;7.03;;;1.50;;
37297;SDS011;30517;51.932;4.278;2022-12-29T10:07:11;5.63;;;1.75;;
37297;SDS011;30517;51.932;4.278;2022-12-29T10:10:15;9.32;;;2.25;;
37297;SDS011;30517;51.932;4.278;2022-12-29T10:13:26;9.73;;;2.10;;
37297;SDS011;30517;51.932;4.278;2022-12-29T10:16:18;8.30;;;1.98;;
37297;SDS011;30517;51.932;4.278;2022-12-29T10:21:59;9.68;;;2.17;;
37297;SDS011;30517;51.932;4.278;2022-12-29T10:24:42;8.43;;;2.22;;
37297;SDS011;30517;51.932;4.278;2022-12-29T10:27:27;8.35;;;1.80;;
37297;SDS011;30517;51.932;4.278;2022-12-29T10:30:12;10.93;;;2.00;;
37297;SDS011;30517;51.932;4.278;2022-12-29T10:32:55;11.55;;;2.25;;
37297;SDS011;30517;51.932;4.278;2022-12-29T10:35:39;7.07;;;2.28;;
37297;SDS011;30517;51.932;4.278;2022-12-29T10:44:25;8.32;;;2.25;;
37297;SDS011;30517;51.932;4.278;2022-12-29T10:47:12;7.70;;;2.20;;
37297;SDS011;30517;51.932;4.278;2022-12-29T10:49:59;9.45;;;2.55;;
37297;SDS011;30517;51.932;4.278;2022-12-29T10:52:41;13.52;;;3.05;;
37297;SDS011;30517;51.932;4.278;2022-12-29T10:55:24;11.15;;;2.60;;
37297;SDS011;30517;51.932;4.278;2022-12-29T10:58:09;10.95;;;2.67;;
37297;SDS011;30517;51.932;4.278;2022-12-29T11:00:53;13.18;;;2.45;;
37297;SDS011;30517;51.932;4.278;2022-12-29T11:03:53;10.05;;;2.10;;
37297;SDS011;30517;51.932;4.278;2022-12-29T11:06:43;7.15;;;1.80;;
37297;SDS011;30517;51.932;4.278;2022-12-29T11:09:24;8.38;;;2.28;;
37297;SDS011;30517;51.932;4.278;2022-12-29T11:12:20;8.45;;;2.05;;
37297;SDS011;30517;51.932;4.278;2022-12-29T11:26:05;7.97;;;2.00;;
37297;SDS011;30517;51.932;4.278;2022-12-29T11:28:47;8.25;;;2.45;;
37297;SDS011;30517;51.932;4.278;2022-12-29T11:31:47;9.60;;;2.17;;
37297;SDS011;30517;51.932;4.278;2022-12-29T11:34:33;11.35;;;2.15;;
37297;SDS011;30517;51.932;4.278;2022-12-29T11:37:58;12.70;;;1.98;;
37297;SDS011;30517;51.932;4.278;2022-12-29T11:40:20;6.57;;;1.77;;
37297;SDS011;30517;51.932;4.278;2022-12-29T11:43:01;11.55;;;2.85;;
37297;SDS011;30517;51.932;4.278;2022-12-29T11:45:44;10.57;;;2.42;;
37297;SDS011;30517;51.932;4.278;2022-12-29T11:48:28;13.27;;;2.90;;
37297;SDS011;30517;51.932;4.278;2022-12-29T11:51:12;7.20;;;1.75;;
37297;SDS011;30517;51.932;4.278;2022-12-29T11:54:02;11.48;;;2.85;;
37297;SDS011;30517;51.932;4.278;2022-12-29T11:56:45;11.32;;;2.20;;
37297;SDS011;30517;51.932;4.278;2022-12-29T12:10:59;13.68;;;2.17;;
37297;SDS011;30517;51.932;4.278;2022-12-29T12:13:57;8.75;;;2.28;;
37297;SDS011;30517;51.932;4.278;2022-12-29T12:17:26;8.80;;;2.20;;
37297;SDS011;30517;51.932;4.278;2022-12-29T12:26:17;9.68;;;1.88;;
37297;SDS011;30517;51.932;4.278;2022-12-29T12:31:49;11.45;;;2.42;;
37297;SDS011;30517;51.932;4.278;2022-12-29T12:34:43;9.38;;;2.67;;
37297;SDS011;30517;51.932;4.278;2022-12-29T12:49:39;11.63;;;2.25;;
37297;SDS011;30517;51.932;4.278;2022-12-29T12:52:44;6.13;;;1.63;;
37297;SDS011;30517;51.932;4.278;2022-12-29T12:55:52;8.02;;;1.83;;
37297;SDS011;30517;51.932;4.278;2022-12-29T13:15:14;8.15;;;1.63;;
37297;SDS011;30517;51.932;4.278;2022-12-29T13:18:05;6.20;;;2.17;;
37297;SDS011;30517;51.932;4.278;2022-12-29T13:21:44;8.02;;;1.65;;
37297;SDS011;30517;51.932;4.278;2022-12-29T13:27:15;9.55;;;1.80;;
37297;SDS011;30517;51.932;4.278;2022-12-29T13:30:05;5.90;;;1.52;;
37297;SDS011;30517;51.932;4.278;2022-12-29T13:39:23;7.38;;;1.70;;
37297;SDS011;30517;51.932;4.278;2022-12-29T13:42:08;4.00;;;1.30;;
37297;SDS011;30517;51.932;4.278;2022-12-29T13:44:57;6.10;;;1.70;;
37297;SDS011;30517;51.932;4.278;2022-12-29T13:47:44;5.90;;;1.63;;
37297;SDS011;30517;51.932;4.278;2022-12-29T13:50:40;9.63;;;2.00;;
37297;SDS011;30517;51.932;4.278;2022-12-29T13:53:27;5.80;;;1.40;;
37297;SDS011;30517;51.932;4.278;2022-12-29T13:56:23;8.55;;;1.80;;
37297;SDS011;30517;51.932;4.278;2022-12-29T13:59:15;7.40;;;1.63;;
37297;SDS011;30517;51.932;4.278;2022-12-29T14:02:03;7.20;;;1.80;;
37297;SDS011;30517;51.932;4.278;2022-12-29T14:04:58;6.05;;;1.98;;
37297;SDS011;30517;51.932;4.278;2022-12-29T14:07:43;4.68;;;1.80;;
37297;SDS011;30517;51.932;4.278;2022-12-29T14:10:35;8.60;;;1.90;;
37297;SDS011;30517;51.932;4.278;2022-12-29T14:13:18;7.20;;;1.30;;
37297;SDS011;30517;51.932;4.278;2022-12-29T14:16:02;5.65;;;1.30;;
37297;SDS011;30517;51.932;4.278;2022-12-29T14:18:44;5.22;;;1.25;;
37297;SDS011;30517;51.932;4.278;2022-12-29T14:21:25;5.85;;;1.25;;
37297;SDS011;30517;51.932;4.278;2022-12-29T14:29:53;4.60;;;1.85;;
37297;SDS011;30517;51.932;4.278;2022-12-29T14:32:35;4.07;;;1.75;;
37297;SDS011;30517;51.932;4.278;2022-12-29T14:35:50;5.03;;;1.70;;
37297;SDS011;30517;51.932;4.278;2022-12-29T14:38:29;4.57;;;1.65;;
37297;SDS011;30517;51.932;4.278;2022-12-29T14:41:27;6.10;;;1.60;;
37297;SDS011;30517;51.932;4.278;2022-12-29T14:44:21;8.23;;;1.92;;
37297;SDS011;30517;51.932;4.278;2022-12-29T14:47:08;6.40;;;2.10;;
37297;SDS011;30517;51.932;4.278;2022-12-29T14:49:48;4.80;;;1.90;;
37297;SDS011;30517;51.932;4.278;2022-12-29T14:52:29;4.43;;;1.42;;
37297;SDS011;30517;51.932;4.278;2022-12-29T15:00:43;5.78;;;1.73;;
37297;SDS011;30517;51.932;4.278;2022-12-29T15:06:13;5.28;;;1.52;;
37297;SDS011;30517;51.932;4.278;2022-12-29T15:09:00;4.53;;;1.50;;
37297;SDS011;30517;51.932;4.278;2022-12-29T15:11:52;7.18;;;1.80;;
37297;SDS011;30517;51.932;4.278;2022-12-29T15:14:36;3.38;;;1.40;;
37297;SDS011;30517;51.932;4.278;2022-12-29T15:17:29;5.85;;;1.67;;
37297;SDS011;30517;51.932;4.278;2022-12-29T15:20:17;4.72;;;1.58;;
37297;SDS011;30517;51.932;4.278;2022-12-29T15:23:08;5.38;;;1.50;;
37297;SDS011;30517;51.932;4.278;2022-12-29T15:25:55;8.80;;;2.08;;
37297;SDS011;30517;51.932;4.278;2022-12-29T15:28:42;8.20;;;1.88;;
37297;SDS011;30517;51.932;4.278;2022-12-29T15:31:24;9.32;;;1.33;;
37297;SDS011;30517;51.932;4.278;2022-12-29T15:34:10;6.03;;;1.42;;
37297;SDS011;30517;51.932;4.278;2022-12-29T15:36:52;6.80;;;1.73;;
37297;SDS011;30517;51.932;4.278;2022-12-29T15:39:33;5.53;;;1.73;;
37297;SDS011;30517;51.932;4.278;2022-12-29T15:42:16;4.68;;;1.67;;
37297;SDS011;30517;51.932;4.278;2022-12-29T15:45:18;6.35;;;1.40;;
37297;SDS011;30517;51.932;4.278;2022-12-29T15:47:59;5.40;;;1.67;;
37297;SDS011;30517;51.932;4.278;2022-12-29T15:50:40;3.05;;;1.33;;
37297;SDS011;30517;51.932;4.278;2022-12-29T15:56:09;5.57;;;1.50;;
37297;SDS011;30517;51.932;4.278;2022-12-29T15:58:51;4.85;;;1.73;;
37297;SDS011;30517;51.932;4.278;2022-12-29T16:01:34;4.68;;;1.23;;
37297;SDS011;30517;51.932;4.278;2022-12-29T16:04:16;5.55;;;1.15;;
37297;SDS011;30517;51.932;4.278;2022-12-29T16:07:01;3.22;;;1.20;;
37297;SDS011;30517;51.932;4.278;2022-12-29T16:09:48;2.63;;;0.90;;
37297;SDS011;30517;51.932;4.278;2022-12-29T16:12:35;3.63;;;1.25;;
37297;SDS011;30517;51.932;4.278;2022-12-29T16:15:18;6.97;;;1.83;;
37297;SDS011;30517;51.932;4.278;2022-12-29T16:17:59;4.63;;;1.48;;
37297;SDS011;30517;51.932;4.278;2022-12-29T16:20:41;6.38;;;1.63;;
37297;SDS011;30517;51.932;4.278;2022-12-29T16:23:24;3.05;;;0.90;;
37297;SDS011;30517;51.932;4.278;2022-12-29T16:26:10;5.68;;;1.75;;
37297;SDS011;30517;51.932;4.278;2022-12-29T16:28:59;9.57;;;1.65;;
37297;SDS011;30517;51.932;4.278;2022-12-29T16:31:49;3.90;;;1.25;;
37297;SDS011;30517;51.932;4.278;2022-12-29T16:37:30;5.93;;;1.17;;
37297;SDS011;30517;51.932;4.278;2022-12-29T16:40:29;2.40;;;1.10;;
37297;SDS011;30517;51.932;4.278;2022-12-29T16:43:18;3.42;;;1.10;;
37297;SDS011;30517;51.932;4.278;2022-12-29T16:49:10;4.03;;;1.45;;
37297;SDS011;30517;51.932;4.278;2022-12-29T16:51:57;7.05;;;1.63;;
37297;SDS011;30517;51.932;4.278;2022-12-29T16:54:38;5.97;;;1.52;;
37297;SDS011;30517;51.932;4.278;2022-12-29T16:57:28;5.45;;;1.27;;
37297;SDS011;30517;51.932;4.278;2022-12-29T17:00:18;3.25;;;1.40;;
37297;SDS011;30517;51.932;4.278;2022-12-29T17:03:01;3.40;;;1.33;;
37297;SDS011;30517;51.932;4.278;2022-12-29T17:05:43;4.13;;;1.17;;
37297;SDS011;30517;51.932;4.278;2022-12-29T17:08:24;2.83;;;1.10;;
37297;SDS011;30517;51.932;4.278;2022-12-29T17:11:08;6.25;;;1.40;;
37297;SDS011;30517;51.932;4.278;2022-12-29T17:17:47;8.07;;;1.80;;
37297;SDS011;30517;51.932;4.278;2022-12-29T17:20:30;7.63;;;1.63;;
37297;SDS011;30517;51.932;4.278;2022-12-29T17:23:14;6.90;;;1.75;;
37297;SDS011;30517;51.932;4.278;2022-12-29T17:25:56;4.38;;;1.65;;
37297;SDS011;30517;51.932;4.278;2022-12-29T17:28:37;5.88;;;1.80;;
37297;SDS011;30517;51.932;4.278;2022-12-29T17:31:17;9.35;;;1.60;;
37297;SDS011;30517;51.932;4.278;2022-12-29T17:33:58;5.50;;;1.42;;
37297;SDS011;30517;51.932;4.278;2022-12-29T17:36:40;4.22;;;1.30;;
37297;SDS011;30517;51.932;4.278;2022-12-29T17:39:20;7.45;;;2.47;;
37297;SDS011;30517;51.932;4.278;2022-12-29T17:42:01;5.97;;;1.48;;
37297;SDS011;30517;51.932;4.278;2022-12-29T17:44:42;6.07;;;1.30;;
37297;SDS011;30517;51.932;4.278;2022-12-29T17:47:23;6.30;;;1.75;;
37297;SDS011;30517;51.932;4.278;2022-12-29T17:50:04;6.55;;;1.58;;
37297;SDS011;30517;51.932;4.278;2022-12-29T17:52:47;4.20;;;1.67;;
37297;SDS011;30517;51.932;4.278;2022-12-29T17:55:32;4.18;;;1.30;;
37297;SDS011;30517;51.932;4.278;2022-12-29T17:58:17;3.60;;;1.50;;
37297;SDS011;30517;51.932;4.278;2022-12-29T18:01:02;3.72;;;1.33;;
37297;SDS011;30517;51.932;4.278;2022-12-29T18:03:45;3.67;;;1.33;;
37297;SDS011;30517;51.932;4.278;2022-12-29T18:06:25;6.88;;;1.60;;
37297;SDS011;30517;51.932;4.278;2022-12-29T18:09:06;5.18;;;1.58;;
37297;SDS011;30517;51.932;4.278;2022-12-29T18:11:49;2.97;;;1.33;;
37297;SDS011;30517;51.932;4.278;2022-12-29T18:14:30;8.75;;;1.70;;
37297;SDS011;30517;51.932;4.278;2022-12-29T18:17:11;3.08;;;1.35;;
37297;SDS011;30517;51.932;4.278;2022-12-29T18:19:52;5.70;;;1.77;;
37297;SDS011;30517;51.932;4.278;2022-12-29T18:22:34;6.75;;;1.55;;
37297;SDS011;30517;51.932;4.278;2022-12-29T18:25:22;7.28;;;1.27;;
37297;SDS011;30517;51.932;4.278;2022-12-29T18:28:05;6.15;;;1.52;;
37297;SDS011;30517;51.932;4.278;2022-12-29T18:30:46;6.28;;;1.50;;
37297;SDS011;30517;51.932;4.278;2022-12-29T18:33:27;4.25;;;1.30;;
37297;SDS011;30517;51.932;4.278;2022-12-29T18:36:09;7.63;;;2.22;;
37297;SDS011;30517;51.932;4.278;2022-12-29T18:39:01;4.75;;;1.50;;
37297;SDS011;30517;51.932;4.278;2022-12-29T18:41:41;4.03;;;1.08;;
37297;SDS011;30517;51.932;4.278;2022-12-29T18:44:22;4.97;;;1.38;;
37297;SDS011;30517;51.932;4.278;2022-12-29T18:47:03;4.35;;;1.75;;
37297;SDS011;30517;51.932;4.278;2022-12-29T18:49:45;7.90;;;1.30;;
37297;SDS011;30517;51.932;4.278;2022-12-29T18:52:26;4.63;;;1.75;;
37297;SDS011;30517;51.932;4.278;2022-12-29T18:55:18;8.30;;;1.92;;
37297;SDS011;30517;51.932;4.278;2022-12-29T18:58:01;5.93;;;1.33;;
37297;SDS011;30517;51.932;4.278;2022-12-29T19:00:42;6.00;;;1.60;;